createdAt,value
2022-08-02T00:02:35.254Z,6.2
2022-08-02T00:05:28.251Z,6.4
2022-08-02T00:08:06.704Z,5.4
2022-08-02T00:10:30.952Z,0
2022-08-02T05:06:50.663Z,4.3
2022-08-02T05:09:40.759Z,4
2022-08-02T05:12:16.500Z,0
2022-08-02T05:16:44.750Z,4
2022-08-02T05:19:41.237Z,0
2022-08-02T05:39:55.255Z,4
2022-08-02T05:42:48.564Z,0
2022-08-02T05:57:32.072Z,4.3
2022-08-02T06:00:34.070Z,4.1
2022-08-02T06:03:21.779Z,0
2022-08-02T06:18:17.108Z,6.6
2022-08-02T06:23:28.100Z,7.8
2022-08-02T06:26:13.870Z,7.6
2022-08-02T06:28:45.261Z,5
2022-08-02T06:31:02.245Z,0
2022-08-02T06:33:04.752Z,6.4
2022-08-02T06:38:34.753Z,8.6
2022-08-02T06:43:06.973Z,5.8
2022-08-02T06:48:49.643Z,5.3
2022-08-02T06:51:19.270Z,8.5
2022-08-02T06:58:25.519Z,10.6
2022-08-02T07:03:22.987Z,7.9
2022-08-02T07:11:08.992Z,7.5
2022-08-02T07:15:50.275Z,9.1
2022-08-02T07:21:57.408Z,9.4
2022-08-02T07:31:35.719Z,9.7
2022-08-02T07:34:16.225Z,10.1
2022-08-02T07:38:53.696Z,11.7
2022-08-02T07:44:41.729Z,12
2022-08-02T07:51:35.527Z,12.1
2022-08-02T07:54:28.441Z,13.2
2022-08-02T07:57:07.339Z,13.7
2022-08-02T08:01:41.292Z,9.6
2022-08-02T08:04:40.479Z,11
2022-08-02T08:07:25.509Z,12.2
2022-08-02T08:12:12.554Z,10.9
2022-08-02T08:17:05.303Z,10.2
2022-08-02T08:22:04.241Z,8.3
2022-08-02T08:27:10.245Z,15.7
2022-08-02T08:34:35.727Z,13.6
2022-08-02T08:37:39.503Z,10.4
2022-08-02T08:40:29.101Z,12.1
2022-08-02T08:43:03.963Z,15.2
2022-08-02T08:45:24.439Z,14.3
2022-08-02T08:53:07.776Z,13.9
2022-08-02T08:57:47.331Z,9.6
2022-08-02T09:06:10.067Z,11.2
2022-08-02T09:08:28.819Z,13.7
2022-08-02T09:20:42.260Z,12.5
2022-08-02T09:23:42.434Z,13.5
2022-08-02T09:26:28.179Z,14.2
2022-08-02T09:31:16.798Z,10.8
2022-08-02T09:33:19.219Z,11.9
2022-08-02T09:38:49.078Z,10.4
2022-08-02T09:46:22.861Z,9.6
2022-08-02T09:51:33.000Z,8
2022-08-02T09:53:48.214Z,6.7
2022-08-02T09:58:39.216Z,10.8
2022-08-02T10:03:37.328Z,11.3
2022-08-02T10:08:40.232Z,11.2
2022-08-02T10:16:03.541Z,10.4
2022-08-02T10:19:06.496Z,11.7
2022-08-02T10:21:55.045Z,11.8
2022-08-02T10:24:28.931Z,17
2022-08-02T10:28:54.110Z,8.2
2022-08-02T10:31:48.681Z,10.5
2022-08-02T10:36:54.968Z,7.9
2022-08-02T10:42:07.480Z,9.5
2022-08-02T10:49:44.361Z,9.9
2022-08-02T10:54:40.719Z,8.4
2022-08-02T10:57:19.213Z,9.3
2022-08-02T10:59:43.422Z,8.5
2022-08-02T11:01:53.377Z,9.1
2022-08-02T11:04:52.448Z,11.2
2022-08-02T11:10:07.761Z,10.2
2022-08-02T11:12:23.666Z,11
2022-08-02T11:17:16.622Z,9.3
2022-08-02T11:32:32.662Z,6.3
2022-08-02T11:34:47.086Z,9.2
2022-08-02T11:43:14.934Z,12.5
2022-08-02T11:45:35.450Z,12.9
2022-08-02T11:50:37.184Z,9.2
2022-08-02T11:55:45.185Z,8.8
2022-08-02T11:58:02.899Z,7.1
2022-08-02T12:00:59.754Z,10.6
2022-08-02T12:08:39.309Z,10.9
2022-08-02T12:10:43.556Z,7.9
2022-08-02T12:13:37.148Z,8.1
2022-08-02T12:18:41.679Z,12.8
2022-08-02T12:26:38.289Z,14.2
2022-08-02T12:33:28.916Z,11.1
2022-08-02T12:38:59.311Z,8.7
2022-08-02T12:46:28.906Z,9.9
2022-08-02T12:58:48.501Z,12.9
2022-08-02T13:04:08.143Z,8.5
2022-08-02T13:08:49.182Z,7.6
2022-08-02T13:13:58.885Z,8.7
2022-08-02T13:19:14.897Z,11.7
2022-08-02T13:29:02.175Z,13.5
2022-08-02T13:34:37.174Z,11.1
2022-08-02T13:37:03.194Z,13.5
2022-08-02T13:39:14.667Z,13.3
2022-08-02T13:45:11.992Z,11.5
2022-08-02T13:47:36.101Z,13.4
2022-08-02T13:51:55.493Z,10.5
2022-08-02T13:54:48.432Z,8.6
2022-08-02T13:57:26.923Z,12.4
2022-08-02T14:02:00.912Z,7.7
2022-08-02T14:07:44.644Z,8.9
2022-08-02T14:12:31.162Z,7.3
2022-08-02T14:24:30.446Z,13.6
2022-08-02T14:32:39.451Z,12.5
2022-08-02T14:34:53.692Z,13.4
2022-08-02T14:37:57.472Z,10.5
2022-08-02T14:40:46.757Z,9.8
2022-08-02T14:58:03.954Z,7.2
2022-08-02T15:01:06.130Z,8.6
2022-08-02T15:06:26.428Z,7.9
2022-08-02T15:13:43.173Z,7.3
2022-08-02T15:18:47.624Z,7.8
2022-08-02T15:20:58.282Z,9.3
2022-08-02T15:23:58.182Z,7.8
2022-08-02T15:26:43.896Z,7.5
2022-08-02T15:29:15.137Z,7.7
2022-08-02T15:36:26.378Z,7.1
2022-08-02T15:41:27.161Z,7.2
2022-08-02T15:46:34.168Z,4.3
2022-08-02T15:49:18.070Z,6
2022-08-02T15:58:53.987Z,7
2022-08-02T16:05:57.149Z,6.9
2022-08-02T16:11:35.710Z,7.2
2022-08-02T16:14:03.512Z,8.5
2022-08-02T16:22:08.186Z,8.1
2022-08-02T16:24:41.624Z,8.6
2022-08-02T16:27:01.150Z,11
2022-08-02T16:32:00.908Z,5.7
2022-08-02T16:36:28.051Z,7.4
2022-08-02T16:39:23.674Z,5.6
2022-08-02T16:42:04.936Z,5.7
2022-08-02T16:46:45.301Z,0
2022-08-02T16:55:08.496Z,7.9
2022-08-02T17:05:04.126Z,6.3
2022-08-02T17:08:06.882Z,6.4
2022-08-02T17:12:40.425Z,7.9
2022-08-02T17:20:14.665Z,0
2022-08-02T17:25:11.042Z,5.3
2022-08-02T17:30:11.268Z,5.4
2022-08-02T17:35:18.031Z,6
2022-08-02T17:40:31.760Z,5.4
2022-08-02T17:50:14.392Z,5.4
2022-08-02T17:52:48.531Z,6.1
2022-08-02T18:08:05.954Z,5.6
2022-08-02T18:10:54.253Z,4
2022-08-02T18:15:48.283Z,5.6
2022-08-02T18:23:29.315Z,4.1
2022-08-02T18:25:55.557Z,4.2
2022-08-02T19:13:24.727Z,4.7
2022-08-02T19:16:22.261Z,6.2
2022-08-02T19:19:05.209Z,4
2022-08-02T19:22:16.867Z,5.6
2022-08-02T19:26:52.775Z,6.1
2022-08-02T19:36:43.228Z,5
2022-08-02T19:39:39.492Z,4.9
2022-08-02T19:42:20.549Z,5.5
2022-08-02T19:44:47.242Z,4.9
2022-08-02T19:46:59.588Z,0
2022-08-02T19:50:01.993Z,4
2022-08-02T19:52:49.235Z,0
